sensor_id;sensor_type;location;lat;lon;timestamp;temperature;humidity
2783;DHT22;1399;47.072;15.452;2023-12-04T00:00:05;6.10;40.50
2783;DHT22;1399;47.072;15.452;2023-12-04T00:02:32;6.10;40.50
2783;DHT22;1399;47.072;15.452;2023-12-04T00:04:58;6.10;40.40
2783;DHT22;1399;47.072;15.452;2023-12-04T00:07:24;6.10;40.40
2783;DHT22;1399;47.072;15.452;2023-12-04T00:09:49;6.10;40.40
2783;DHT22;1399;47.072;15.452;2023-12-04T00:12:16;6.10;40.90
2783;DHT22;1399;47.072;15.452;2023-12-04T00:14:41;6.10;40.30
2783;DHT22;1399;47.072;15.452;2023-12-04T00:17:07;6.10;40.20
2783;DHT22;1399;47.072;15.452;2023-12-04T00:19:32;6.10;40.20
2783;DHT22;1399;47.072;15.452;2023-12-04T00:21:58;6.10;40.20
2783;DHT22;1399;47.072;15.452;2023-12-04T00:24:24;6.10;40.10
2783;DHT22;1399;47.072;15.452;2023-12-04T00:26:49;6.10;40.10
2783;DHT22;1399;47.072;15.452;2023-12-04T00:29:15;6.00;40.00
2783;DHT22;1399;47.072;15.452;2023-12-04T00:31:41;6.00;40.00
2783;DHT22;1399;47.072;15.452;2023-12-04T00:34:07;6.00;40.00
2783;DHT22;1399;47.072;15.452;2023-12-04T00:36:32;6.00;40.00
2783;DHT22;1399;47.072;15.452;2023-12-04T00:38:58;6.00;40.00
2783;DHT22;1399;47.072;15.452;2023-12-04T00:41:24;6.00;40.00
2783;DHT22;1399;47.072;15.452;2023-12-04T00:43:50;6.00;40.00
2783;DHT22;1399;47.072;15.452;2023-12-04T00:46:16;5.90;39.80
2783;DHT22;1399;47.072;15.452;2023-12-04T00:48:41;6.00;39.80
2783;DHT22;1399;47.072;15.452;2023-12-04T00:51:07;5.90;39.70
2783;DHT22;1399;47.072;15.452;2023-12-04T00:53:32;5.90;39.70
2783;DHT22;1399;47.072;15.452;2023-12-04T00:55:58;5.90;39.60
2783;DHT22;1399;47.072;15.452;2023-12-04T00:58:24;5.90;39.60
2783;DHT22;1399;47.072;15.452;2023-12-04T01:00:49;5.90;39.60
2783;DHT22;1399;47.072;15.452;2023-12-04T01:03:17;5.90;39.60
2783;DHT22;1399;47.072;15.452;2023-12-04T01:05:43;5.90;39.50
2783;DHT22;1399;47.072;15.452;2023-12-04T01:08:08;5.90;40.20
2783;DHT22;1399;47.072;15.452;2023-12-04T01:10:34;5.90;39.50
2783;DHT22;1399;47.072;15.452;2023-12-04T01:13:00;5.90;39.40
2783;DHT22;1399;47.072;15.452;2023-12-04T01:15:26;5.80;39.30
2783;DHT22;1399;47.072;15.452;2023-12-04T01:17:51;5.80;39.30
2783;DHT22;1399;47.072;15.452;2023-12-04T01:20:17;5.80;39.30
2783;DHT22;1399;47.072;15.452;2023-12-04T01:22:43;5.80;39.30
2783;DHT22;1399;47.072;15.452;2023-12-04T01:25:09;5.80;39.40
2783;DHT22;1399;47.072;15.452;2023-12-04T01:27:35;5.80;39.40
2783;DHT22;1399;47.072;15.452;2023-12-04T01:30:05;5.70;39.30
2783;DHT22;1399;47.072;15.452;2023-12-04T01:32:31;5.80;39.40
2783;DHT22;1399;47.072;15.452;2023-12-04T01:34:56;5.70;39.30
2783;DHT22;1399;47.072;15.452;2023-12-04T01:37:22;5.70;39.30
2783;DHT22;1399;47.072;15.452;2023-12-04T01:39:48;5.70;39.30
2783;DHT22;1399;47.072;15.452;2023-12-04T01:42:14;5.70;39.30
2783;DHT22;1399;47.072;15.452;2023-12-04T01:44:40;5.70;39.30
2783;DHT22;1399;47.072;15.452;2023-12-04T01:47:05;5.70;39.20
2783;DHT22;1399;47.072;15.452;2023-12-04T01:49:33;5.70;39.20
2783;DHT22;1399;47.072;15.452;2023-12-04T01:51:59;5.70;39.20
2783;DHT22;1399;47.072;15.452;2023-12-04T01:54:25;5.70;39.10
2783;DHT22;1399;47.072;15.452;2023-12-04T01:56:51;5.70;39.00
2783;DHT22;1399;47.072;15.452;2023-12-04T01:59:17;5.70;38.90
2783;DHT22;1399;47.072;15.452;2023-12-04T02:01:42;5.60;38.80
2783;DHT22;1399;47.072;15.452;2023-12-04T02:04:08;5.60;38.80
2783;DHT22;1399;47.072;15.452;2023-12-04T02:06:34;5.60;38.80
2783;DHT22;1399;47.072;15.452;2023-12-04T02:09:01;5.60;38.80
2783;DHT22;1399;47.072;15.452;2023-12-04T02:11:27;5.60;38.80
2783;DHT22;1399;47.072;15.452;2023-12-04T02:13:53;5.60;38.80
2783;DHT22;1399;47.072;15.452;2023-12-04T02:16:20;5.60;38.80
2783;DHT22;1399;47.072;15.452;2023-12-04T02:18:48;5.60;38.80
2783;DHT22;1399;47.072;15.452;2023-12-04T02:21:14;5.60;38.80
2783;DHT22;1399;47.072;15.452;2023-12-04T02:23:39;5.60;38.80
2783;DHT22;1399;47.072;15.452;2023-12-04T02:26:16;5.50;38.70
2783;DHT22;1399;47.072;15.452;2023-12-04T02:28:48;5.50;38.60
2783;DHT22;1399;47.072;15.452;2023-12-04T02:31:16;5.50;38.50
2783;DHT22;1399;47.072;15.452;2023-12-04T02:33:45;5.50;38.50
2783;DHT22;1399;47.072;15.452;2023-12-04T02:36:12;5.50;38.40
2783;DHT22;1399;47.072;15.452;2023-12-04T02:38:39;5.50;38.40
2783;DHT22;1399;47.072;15.452;2023-12-04T02:41:05;5.50;38.40
2783;DHT22;1399;47.072;15.452;2023-12-04T02:43:31;5.40;38.30
2783;DHT22;1399;47.072;15.452;2023-12-04T02:45:59;5.40;38.30
2783;DHT22;1399;47.072;15.452;2023-12-04T02:48:24;5.40;38.30
2783;DHT22;1399;47.072;15.452;2023-12-04T02:50:50;5.40;38.30
2783;DHT22;1399;47.072;15.452;2023-12-04T02:53:16;5.40;38.30
2783;DHT22;1399;47.072;15.452;2023-12-04T02:55:41;5.40;38.90
2783;DHT22;1399;47.072;15.452;2023-12-04T02:58:07;5.40;38.30
2783;DHT22;1399;47.072;15.452;2023-12-04T03:00:33;5.40;38.30
2783;DHT22;1399;47.072;15.452;2023-12-04T03:02:59;5.30;38.20
2783;DHT22;1399;47.072;15.452;2023-12-04T03:05:25;5.40;38.20
2783;DHT22;1399;47.072;15.452;2023-12-04T03:07:50;5.40;38.20
2783;DHT22;1399;47.072;15.452;2023-12-04T03:10:16;5.40;38.20
2783;DHT22;1399;47.072;15.452;2023-12-04T03:12:42;5.30;38.10
2783;DHT22;1399;47.072;15.452;2023-12-04T03:15:07;5.30;38.10
2783;DHT22;1399;47.072;15.452;2023-12-04T03:17:33;5.30;38.10
2783;DHT22;1399;47.072;15.452;2023-12-04T03:19:59;5.30;38.00
2783;DHT22;1399;47.072;15.452;2023-12-04T03:22:25;5.30;38.00
2783;DHT22;1399;47.072;15.452;2023-12-04T03:24:50;5.30;38.00
2783;DHT22;1399;47.072;15.452;2023-12-04T03:27:16;5.30;37.90
2783;DHT22;1399;47.072;15.452;2023-12-04T03:29:42;5.30;37.90
2783;DHT22;1399;47.072;15.452;2023-12-04T03:32:07;5.30;37.90
2783;DHT22;1399;47.072;15.452;2023-12-04T03:34:33;5.30;37.90
2783;DHT22;1399;47.072;15.452;2023-12-04T03:36:59;5.20;37.70
2783;DHT22;1399;47.072;15.452;2023-12-04T03:39:25;5.20;37.70
2783;DHT22;1399;47.072;15.452;2023-12-04T03:41:50;5.20;37.60
2783;DHT22;1399;47.072;15.452;2023-12-04T03:44:16;5.20;37.60
2783;DHT22;1399;47.072;15.452;2023-12-04T03:46:42;5.20;37.60
2783;DHT22;1399;47.072;15.452;2023-12-04T03:49:07;5.20;37.60
2783;DHT22;1399;47.072;15.452;2023-12-04T03:51:33;5.20;37.50
2783;DHT22;1399;47.072;15.452;2023-12-04T03:54:00;5.20;37.50
2783;DHT22;1399;47.072;15.452;2023-12-04T03:56:25;5.20;37.60
2783;DHT22;1399;47.072;15.452;2023-12-04T03:58:51;5.10;37.50
2783;DHT22;1399;47.072;15.452;2023-12-04T04:01:16;5.10;37.50
2783;DHT22;1399;47.072;15.452;2023-12-04T04:03:42;5.10;37.40
2783;DHT22;1399;47.072;15.452;2023-12-04T04:06:08;5.10;37.40
2783;DHT22;1399;47.072;15.452;2023-12-04T04:08:34;5.10;37.40
2783;DHT22;1399;47.072;15.452;2023-12-04T04:11:00;5.10;37.40
2783;DHT22;1399;47.072;15.452;2023-12-04T04:13:25;5.10;37.40
2783;DHT22;1399;47.072;15.452;2023-12-04T04:15:51;5.00;37.40
2783;DHT22;1399;47.072;15.452;2023-12-04T04:18:17;5.10;37.50
2783;DHT22;1399;47.072;15.452;2023-12-04T04:20:42;5.10;37.50
2783;DHT22;1399;47.072;15.452;2023-12-04T04:23:08;5.00;37.40
2783;DHT22;1399;47.072;15.452;2023-12-04T04:25:34;5.00;37.40
2783;DHT22;1399;47.072;15.452;2023-12-04T04:27:59;5.00;37.40
2783;DHT22;1399;47.072;15.452;2023-12-04T04:30:25;5.00;37.40
2783;DHT22;1399;47.072;15.452;2023-12-04T04:32:51;5.00;37.50
2783;DHT22;1399;47.072;15.452;2023-12-04T04:35:16;5.00;37.50
2783;DHT22;1399;47.072;15.452;2023-12-04T04:37:43;5.00;37.50
2783;DHT22;1399;47.072;15.452;2023-12-04T04:40:08;5.00;37.50
2783;DHT22;1399;47.072;15.452;2023-12-04T04:42:34;5.00;37.60
2783;DHT22;1399;47.072;15.452;2023-12-04T04:45:00;5.00;37.60
2783;DHT22;1399;47.072;15.452;2023-12-04T04:47:25;5.00;37.60
2783;DHT22;1399;47.072;15.452;2023-12-04T04:49:51;5.00;37.60
2783;DHT22;1399;47.072;15.452;2023-12-04T04:52:18;4.90;37.60
2783;DHT22;1399;47.072;15.452;2023-12-04T04:54:44;4.90;37.60
2783;DHT22;1399;47.072;15.452;2023-12-04T04:57:09;5.00;37.60
2783;DHT22;1399;47.072;15.452;2023-12-04T04:59:35;4.90;37.40
2783;DHT22;1399;47.072;15.452;2023-12-04T05:02:01;4.90;37.30
2783;DHT22;1399;47.072;15.452;2023-12-04T05:04:26;4.90;37.30
2783;DHT22;1399;47.072;15.452;2023-12-04T05:06:52;4.90;37.30
2783;DHT22;1399;47.072;15.452;2023-12-04T05:09:18;4.90;37.30
2783;DHT22;1399;47.072;15.452;2023-12-04T05:11:43;4.90;37.40
2783;DHT22;1399;47.072;15.452;2023-12-04T05:14:09;4.90;37.40
2783;DHT22;1399;47.072;15.452;2023-12-04T05:16:35;4.90;37.50
2783;DHT22;1399;47.072;15.452;2023-12-04T05:19:00;4.90;37.40
2783;DHT22;1399;47.072;15.452;2023-12-04T05:21:26;4.90;37.50
2783;DHT22;1399;47.072;15.452;2023-12-04T05:23:52;4.90;37.40
2783;DHT22;1399;47.072;15.452;2023-12-04T05:26:18;4.90;37.40
2783;DHT22;1399;47.072;15.452;2023-12-04T05:28:43;4.90;37.40
2783;DHT22;1399;47.072;15.452;2023-12-04T05:31:09;4.90;37.40
2783;DHT22;1399;47.072;15.452;2023-12-04T05:33:35;4.90;37.40
2783;DHT22;1399;47.072;15.452;2023-12-04T05:36:01;4.90;37.40
2783;DHT22;1399;47.072;15.452;2023-12-04T05:38:26;4.90;37.30
2783;DHT22;1399;47.072;15.452;2023-12-04T05:40:52;4.90;37.20
2783;DHT22;1399;47.072;15.452;2023-12-04T05:43:20;4.90;37.20
2783;DHT22;1399;47.072;15.452;2023-12-04T05:45:45;4.90;37.20
2783;DHT22;1399;47.072;15.452;2023-12-04T05:48:11;4.90;37.20
2783;DHT22;1399;47.072;15.452;2023-12-04T05:50:37;4.90;37.20
2783;DHT22;1399;47.072;15.452;2023-12-04T05:53:02;4.90;37.20
2783;DHT22;1399;47.072;15.452;2023-12-04T05:55:28;4.90;37.10
2783;DHT22;1399;47.072;15.452;2023-12-04T05:57:54;4.90;37.00
2783;DHT22;1399;47.072;15.452;2023-12-04T06:00:19;4.80;36.90
2783;DHT22;1399;47.072;15.452;2023-12-04T06:02:47;4.80;36.90
2783;DHT22;1399;47.072;15.452;2023-12-04T06:05:13;4.90;37.00
2783;DHT22;1399;47.072;15.452;2023-12-04T06:07:38;4.90;37.00
2783;DHT22;1399;47.072;15.452;2023-12-04T06:10:05;4.80;36.90
2783;DHT22;1399;47.072;15.452;2023-12-04T06:12:31;4.80;36.90
2783;DHT22;1399;47.072;15.452;2023-12-04T06:14:57;4.80;36.90
2783;DHT22;1399;47.072;15.452;2023-12-04T06:17:24;4.80;36.90
2783;DHT22;1399;47.072;15.452;2023-12-04T06:19:50;4.80;36.90
2783;DHT22;1399;47.072;15.452;2023-12-04T06:22:16;4.80;37.00
2783;DHT22;1399;47.072;15.452;2023-12-04T06:24:44;4.80;36.90
2783;DHT22;1399;47.072;15.452;2023-12-04T06:27:18;4.80;36.80
2783;DHT22;1399;47.072;15.452;2023-12-04T06:29:46;4.80;36.70
2783;DHT22;1399;47.072;15.452;2023-12-04T06:32:13;4.80;36.70
2783;DHT22;1399;47.072;15.452;2023-12-04T06:34:39;4.80;37.40
2783;DHT22;1399;47.072;15.452;2023-12-04T06:37:10;4.80;36.80
2783;DHT22;1399;47.072;15.452;2023-12-04T06:39:37;4.80;36.80
2783;DHT22;1399;47.072;15.452;2023-12-04T06:42:08;4.80;36.80
2783;DHT22;1399;47.072;15.452;2023-12-04T06:44:34;4.80;36.80
2783;DHT22;1399;47.072;15.452;2023-12-04T06:47:00;4.80;36.80
2783;DHT22;1399;47.072;15.452;2023-12-04T06:49:30;4.70;36.70
2783;DHT22;1399;47.072;15.452;2023-12-04T06:51:56;4.70;36.70
2783;DHT22;1399;47.072;15.452;2023-12-04T06:54:22;4.80;37.00
2783;DHT22;1399;47.072;15.452;2023-12-04T06:56:47;4.80;37.00
2783;DHT22;1399;47.072;15.452;2023-12-04T06:59:13;4.80;36.90
2783;DHT22;1399;47.072;15.452;2023-12-04T07:01:39;4.80;36.90
2783;DHT22;1399;47.072;15.452;2023-12-04T07:04:04;4.80;36.80
2783;DHT22;1399;47.072;15.452;2023-12-04T07:06:44;4.80;36.80
2783;DHT22;1399;47.072;15.452;2023-12-04T07:09:09;4.80;36.70
2783;DHT22;1399;47.072;15.452;2023-12-04T07:11:35;4.80;36.70
2783;DHT22;1399;47.072;15.452;2023-12-04T07:14:01;4.80;36.60
2783;DHT22;1399;47.072;15.452;2023-12-04T07:16:27;4.80;36.70
2783;DHT22;1399;47.072;15.452;2023-12-04T07:18:53;4.80;36.70
2783;DHT22;1399;47.072;15.452;2023-12-04T07:21:18;4.80;36.70
2783;DHT22;1399;47.072;15.452;2023-12-04T07:23:44;4.80;36.60
2783;DHT22;1399;47.072;15.452;2023-12-04T07:26:10;4.80;36.60
2783;DHT22;1399;47.072;15.452;2023-12-04T07:28:36;4.80;36.60
2783;DHT22;1399;47.072;15.452;2023-12-04T07:31:02;4.80;36.50
2783;DHT22;1399;47.072;15.452;2023-12-04T07:33:27;4.80;36.50
2783;DHT22;1399;47.072;15.452;2023-12-04T07:35:54;4.90;36.60
2783;DHT22;1399;47.072;15.452;2023-12-04T07:38:20;4.90;36.70
2783;DHT22;1399;47.072;15.452;2023-12-04T07:40:45;4.90;36.80
2783;DHT22;1399;47.072;15.452;2023-12-04T07:43:11;4.90;36.90
2783;DHT22;1399;47.072;15.452;2023-12-04T07:45:37;4.90;37.00
2783;DHT22;1399;47.072;15.452;2023-12-04T07:48:06;4.90;37.00
2783;DHT22;1399;47.072;15.452;2023-12-04T07:50:32;4.90;37.10
2783;DHT22;1399;47.072;15.452;2023-12-04T07:52:58;4.90;37.10
2783;DHT22;1399;47.072;15.452;2023-12-04T07:55:23;5.00;37.20
2783;DHT22;1399;47.072;15.452;2023-12-04T07:57:49;5.00;37.40
2783;DHT22;1399;47.072;15.452;2023-12-04T08:00:34;5.00;37.40
2783;DHT22;1399;47.072;15.452;2023-12-04T08:03:00;5.10;37.50
2783;DHT22;1399;47.072;15.452;2023-12-04T08:05:25;5.10;37.50
2783;DHT22;1399;47.072;15.452;2023-12-04T08:07:52;5.10;37.50
2783;DHT22;1399;47.072;15.452;2023-12-04T08:10:18;5.10;37.70
2783;DHT22;1399;47.072;15.452;2023-12-04T08:12:47;5.10;38.00
2783;DHT22;1399;47.072;15.452;2023-12-04T08:15:12;5.20;38.10
2783;DHT22;1399;47.072;15.452;2023-12-04T08:17:38;5.20;38.30
2783;DHT22;1399;47.072;15.452;2023-12-04T08:20:05;5.20;38.50
2783;DHT22;1399;47.072;15.452;2023-12-04T08:22:31;5.20;38.60
2783;DHT22;1399;47.072;15.452;2023-12-04T08:24:57;5.30;38.90
2783;DHT22;1399;47.072;15.452;2023-12-04T08:27:26;5.30;39.00
2783;DHT22;1399;47.072;15.452;2023-12-04T08:29:52;5.30;39.00
2783;DHT22;1399;47.072;15.452;2023-12-04T08:32:18;5.30;39.10
2783;DHT22;1399;47.072;15.452;2023-12-04T08:34:45;5.30;39.00
2783;DHT22;1399;47.072;15.452;2023-12-04T08:37:11;5.40;38.70
2783;DHT22;1399;47.072;15.452;2023-12-04T08:39:36;5.40;38.30
2783;DHT22;1399;47.072;15.452;2023-12-04T08:42:02;5.40;38.10
2783;DHT22;1399;47.072;15.452;2023-12-04T08:44:28;5.40;37.90
2783;DHT22;1399;47.072;15.452;2023-12-04T08:46:53;5.50;37.90
2783;DHT22;1399;47.072;15.452;2023-12-04T08:49:19;5.50;37.60
2783;DHT22;1399;47.072;15.452;2023-12-04T08:51:45;5.50;37.40
2783;DHT22;1399;47.072;15.452;2023-12-04T08:54:10;5.50;37.40
2783;DHT22;1399;47.072;15.452;2023-12-04T08:56:36;5.50;37.30
2783;DHT22;1399;47.072;15.452;2023-12-04T08:59:02;5.60;37.30
2783;DHT22;1399;47.072;15.452;2023-12-04T09:01:27;5.60;37.20
2783;DHT22;1399;47.072;15.452;2023-12-04T09:03:54;5.60;37.20
2783;DHT22;1399;47.072;15.452;2023-12-04T09:06:21;5.60;37.20
2783;DHT22;1399;47.072;15.452;2023-12-04T09:08:47;5.60;37.10
2783;DHT22;1399;47.072;15.452;2023-12-04T09:11:13;5.60;37.20
2783;DHT22;1399;47.072;15.452;2023-12-04T09:13:39;5.70;37.80
2783;DHT22;1399;47.072;15.452;2023-12-04T09:16:05;5.70;38.30
2783;DHT22;1399;47.072;15.452;2023-12-04T09:18:31;5.70;38.70
2783;DHT22;1399;47.072;15.452;2023-12-04T09:20:57;5.80;39.00
2783;DHT22;1399;47.072;15.452;2023-12-04T09:23:23;5.80;39.10
2783;DHT22;1399;47.072;15.452;2023-12-04T09:25:48;5.80;39.20
2783;DHT22;1399;47.072;15.452;2023-12-04T09:28:14;5.80;39.30
2783;DHT22;1399;47.072;15.452;2023-12-04T09:30:40;5.90;39.40
2783;DHT22;1399;47.072;15.452;2023-12-04T09:33:05;5.90;39.60
2783;DHT22;1399;47.072;15.452;2023-12-04T09:35:32;5.90;39.70
2783;DHT22;1399;47.072;15.452;2023-12-04T09:41:20;6.00;40.10
2783;DHT22;1399;47.072;15.452;2023-12-04T09:43:46;6.00;40.10
2783;DHT22;1399;47.072;15.452;2023-12-04T09:46:12;6.00;40.00
2783;DHT22;1399;47.072;15.452;2023-12-04T09:48:41;6.00;40.00
2783;DHT22;1399;47.072;15.452;2023-12-04T09:51:09;6.10;40.10
2783;DHT22;1399;47.072;15.452;2023-12-04T09:53:36;6.10;40.00
2783;DHT22;1399;47.072;15.452;2023-12-04T09:56:03;6.20;40.20
2783;DHT22;1399;47.072;15.452;2023-12-04T09:58:31;6.20;40.10
2783;DHT22;1399;47.072;15.452;2023-12-04T10:01:02;6.20;40.10
2783;DHT22;1399;47.072;15.452;2023-12-04T10:03:28;6.20;40.10
2783;DHT22;1399;47.072;15.452;2023-12-04T10:05:55;6.20;40.20
2783;DHT22;1399;47.072;15.452;2023-12-04T10:08:21;6.30;40.40
2783;DHT22;1399;47.072;15.452;2023-12-04T10:10:47;6.30;40.40
2783;DHT22;1399;47.072;15.452;2023-12-04T10:13:13;6.30;40.30
2783;DHT22;1399;47.072;15.452;2023-12-04T10:15:49;6.40;40.40
2783;DHT22;1399;47.072;15.452;2023-12-04T10:18:26;6.40;40.20
2783;DHT22;1399;47.072;15.452;2023-12-04T10:20:53;6.40;40.10
2783;DHT22;1399;47.072;15.452;2023-12-04T10:23:20;6.40;40.20
2783;DHT22;1399;47.072;15.452;2023-12-04T10:25:51;6.50;40.30
2783;DHT22;1399;47.072;15.452;2023-12-04T10:28:17;6.50;40.10
2783;DHT22;1399;47.072;15.452;2023-12-04T10:30:45;6.50;39.70
2783;DHT22;1399;47.072;15.452;2023-12-04T10:33:12;6.50;39.60
2783;DHT22;1399;47.072;15.452;2023-12-04T10:35:38;6.60;39.60
2783;DHT22;1399;47.072;15.452;2023-12-04T10:38:06;6.70;39.80
2783;DHT22;1399;47.072;15.452;2023-12-04T10:40:35;6.70;39.70
2783;DHT22;1399;47.072;15.452;2023-12-04T10:45:43;6.80;39.60
2783;DHT22;1399;47.072;15.452;2023-12-04T10:48:11;6.80;39.40
2783;DHT22;1399;47.072;15.452;2023-12-04T10:50:42;6.80;39.30
2783;DHT22;1399;47.072;15.452;2023-12-04T10:53:12;6.90;39.30
2783;DHT22;1399;47.072;15.452;2023-12-04T10:55:39;6.90;39.20
2783;DHT22;1399;47.072;15.452;2023-12-04T10:58:07;7.00;39.30
2783;DHT22;1399;47.072;15.452;2023-12-04T11:00:36;7.00;39.30
2783;DHT22;1399;47.072;15.452;2023-12-04T11:03:10;7.00;39.30
2783;DHT22;1399;47.072;15.452;2023-12-04T11:05:41;7.10;39.40
2783;DHT22;1399;47.072;15.452;2023-12-04T11:08:14;7.10;39.60
2783;DHT22;1399;47.072;15.452;2023-12-04T11:10:45;7.10;39.30
2783;DHT22;1399;47.072;15.452;2023-12-04T11:13:21;7.20;39.40
2783;DHT22;1399;47.072;15.452;2023-12-04T11:15:48;7.20;39.50
2783;DHT22;1399;47.072;15.452;2023-12-04T11:18:16;7.30;39.30
2783;DHT22;1399;47.072;15.452;2023-12-04T11:20:51;7.30;39.10
2783;DHT22;1399;47.072;15.452;2023-12-04T11:23:22;7.30;39.20
2783;DHT22;1399;47.072;15.452;2023-12-04T11:25:49;7.40;39.50
2783;DHT22;1399;47.072;15.452;2023-12-04T11:28:15;7.40;39.70
2783;DHT22;1399;47.072;15.452;2023-12-04T11:30:42;7.50;40.30
2783;DHT22;1399;47.072;15.452;2023-12-04T11:33:09;7.50;40.70
2783;DHT22;1399;47.072;15.452;2023-12-04T11:35:38;7.60;40.70
2783;DHT22;1399;47.072;15.452;2023-12-04T11:38:07;7.60;40.70
2783;DHT22;1399;47.072;15.452;2023-12-04T11:40:35;7.60;40.60
2783;DHT22;1399;47.072;15.452;2023-12-04T11:43:20;7.70;41.30
2783;DHT22;1399;47.072;15.452;2023-12-04T11:45:48;7.70;40.70
2783;DHT22;1399;47.072;15.452;2023-12-04T11:48:15;7.70;40.20
2783;DHT22;1399;47.072;15.452;2023-12-04T11:50:43;7.70;40.10
2783;DHT22;1399;47.072;15.452;2023-12-04T11:53:11;7.80;40.50
2783;DHT22;1399;47.072;15.452;2023-12-04T11:55:40;7.80;40.40
2783;DHT22;1399;47.072;15.452;2023-12-04T11:58:10;7.80;40.40
2783;DHT22;1399;47.072;15.452;2023-12-04T12:00:36;7.80;40.40
2783;DHT22;1399;47.072;15.452;2023-12-04T12:03:06;7.80;40.30
2783;DHT22;1399;47.072;15.452;2023-12-04T12:05:33;7.90;40.50
2783;DHT22;1399;47.072;15.452;2023-12-04T12:08:02;7.90;40.60
2783;DHT22;1399;47.072;15.452;2023-12-04T12:10:28;7.90;40.90
2783;DHT22;1399;47.072;15.452;2023-12-04T12:12:55;7.90;40.70
2783;DHT22;1399;47.072;15.452;2023-12-04T12:15:21;7.90;40.60
2783;DHT22;1399;47.072;15.452;2023-12-04T12:17:46;7.90;40.80
2783;DHT22;1399;47.072;15.452;2023-12-04T12:20:15;8.00;40.90
2783;DHT22;1399;47.072;15.452;2023-12-04T12:22:41;8.00;40.90
2783;DHT22;1399;47.072;15.452;2023-12-04T12:25:10;8.00;40.90
2783;DHT22;1399;47.072;15.452;2023-12-04T12:27:37;8.00;40.80
2783;DHT22;1399;47.072;15.452;2023-12-04T12:30:04;8.10;40.90
2783;DHT22;1399;47.072;15.452;2023-12-04T12:32:39;8.10;40.90
2783;DHT22;1399;47.072;15.452;2023-12-04T12:35:05;8.10;40.90
2783;DHT22;1399;47.072;15.452;2023-12-04T12:37:33;8.10;40.80
2783;DHT22;1399;47.072;15.452;2023-12-04T12:40:00;8.20;40.80
2783;DHT22;1399;47.072;15.452;2023-12-04T12:42:27;8.20;40.80
2783;DHT22;1399;47.072;15.452;2023-12-04T12:44:54;8.20;40.60
2783;DHT22;1399;47.072;15.452;2023-12-04T12:47:21;8.20;40.40
2783;DHT22;1399;47.072;15.452;2023-12-04T12:49:47;8.20;40.40
2783;DHT22;1399;47.072;15.452;2023-12-04T12:52:15;8.30;40.40
2783;DHT22;1399;47.072;15.452;2023-12-04T12:54:42;8.30;40.60
2783;DHT22;1399;47.072;15.452;2023-12-04T12:57:08;8.30;40.60
2783;DHT22;1399;47.072;15.452;2023-12-04T12:59:40;8.30;40.60
2783;DHT22;1399;47.072;15.452;2023-12-04T13:02:06;8.30;40.60
2783;DHT22;1399;47.072;15.452;2023-12-04T13:04:41;8.30;40.40
2783;DHT22;1399;47.072;15.452;2023-12-04T13:07:07;8.30;41.00
2783;DHT22;1399;47.072;15.452;2023-12-04T13:09:33;8.30;40.30
2783;DHT22;1399;47.072;15.452;2023-12-04T13:12:01;8.40;40.30
2783;DHT22;1399;47.072;15.452;2023-12-04T13:14:27;8.40;40.20
2783;DHT22;1399;47.072;15.452;2023-12-04T13:16:53;8.30;40.00
2783;DHT22;1399;47.072;15.452;2023-12-04T13:19:21;8.30;39.90
2783;DHT22;1399;47.072;15.452;2023-12-04T13:21:46;8.30;39.80
2783;DHT22;1399;47.072;15.452;2023-12-04T13:24:12;8.30;39.80
2783;DHT22;1399;47.072;15.452;2023-12-04T13:26:38;8.30;39.70
2783;DHT22;1399;47.072;15.452;2023-12-04T13:29:05;8.30;39.80
2783;DHT22;1399;47.072;15.452;2023-12-04T13:31:33;8.30;39.70
2783;DHT22;1399;47.072;15.452;2023-12-04T13:33:59;8.30;39.80
2783;DHT22;1399;47.072;15.452;2023-12-04T13:36:24;8.30;39.80
2783;DHT22;1399;47.072;15.452;2023-12-04T13:38:50;8.30;39.90
2783;DHT22;1399;47.072;15.452;2023-12-04T13:41:16;8.30;39.80
2783;DHT22;1399;47.072;15.452;2023-12-04T13:44:00;8.30;39.80
2783;DHT22;1399;47.072;15.452;2023-12-04T13:46:27;8.30;39.90
2783;DHT22;1399;47.072;15.452;2023-12-04T13:48:58;8.30;39.90
2783;DHT22;1399;47.072;15.452;2023-12-04T13:51:23;8.30;39.90
2783;DHT22;1399;47.072;15.452;2023-12-04T13:53:49;8.20;39.80
2783;DHT22;1399;47.072;15.452;2023-12-04T13:56:21;8.30;40.00
2783;DHT22;1399;47.072;15.452;2023-12-04T13:58:47;8.30;39.90
2783;DHT22;1399;47.072;15.452;2023-12-04T14:01:18;8.20;39.80
2783;DHT22;1399;47.072;15.452;2023-12-04T14:03:48;8.20;39.80
2783;DHT22;1399;47.072;15.452;2023-12-04T14:06:13;8.20;40.50
2783;DHT22;1399;47.072;15.452;2023-12-04T14:08:41;8.20;39.90
2783;DHT22;1399;47.072;15.452;2023-12-04T14:11:07;8.20;39.90
2783;DHT22;1399;47.072;15.452;2023-12-04T14:13:33;8.20;40.00
2783;DHT22;1399;47.072;15.452;2023-12-04T14:15:59;8.20;40.00
2783;DHT22;1399;47.072;15.452;2023-12-04T14:18:25;8.20;40.60
2783;DHT22;1399;47.072;15.452;2023-12-04T14:20:51;8.20;40.10
2783;DHT22;1399;47.072;15.452;2023-12-04T14:23:17;8.20;40.20
2783;DHT22;1399;47.072;15.452;2023-12-04T14:25:44;8.10;40.10
2783;DHT22;1399;47.072;15.452;2023-12-04T14:28:10;8.10;40.10
2783;DHT22;1399;47.072;15.452;2023-12-04T14:30:36;8.10;40.10
2783;DHT22;1399;47.072;15.452;2023-12-04T14:33:02;8.10;40.20
2783;DHT22;1399;47.072;15.452;2023-12-04T14:35:27;8.10;40.20
2783;DHT22;1399;47.072;15.452;2023-12-04T14:37:53;8.10;40.30
2783;DHT22;1399;47.072;15.452;2023-12-04T14:40:19;8.10;40.30
2783;DHT22;1399;47.072;15.452;2023-12-04T14:42:46;8.10;40.30
2783;DHT22;1399;47.072;15.452;2023-12-04T14:45:12;8.10;40.40
2783;DHT22;1399;47.072;15.452;2023-12-04T14:47:39;8.10;40.40
2783;DHT22;1399;47.072;15.452;2023-12-04T14:50:07;8.10;40.40
2783;DHT22;1399;47.072;15.452;2023-12-04T14:52:33;8.10;40.40
2783;DHT22;1399;47.072;15.452;2023-12-04T14:55:00;8.10;40.50
2783;DHT22;1399;47.072;15.452;2023-12-04T14:57:34;8.00;40.40
2783;DHT22;1399;47.072;15.452;2023-12-04T15:00:00;8.10;40.50
2783;DHT22;1399;47.072;15.452;2023-12-04T15:02:44;8.00;40.50
2783;DHT22;1399;47.072;15.452;2023-12-04T15:05:34;8.00;40.40
2783;DHT22;1399;47.072;15.452;2023-12-04T15:08:19;8.00;40.40
2783;DHT22;1399;47.072;15.452;2023-12-04T15:11:04;8.00;40.40
2783;DHT22;1399;47.072;15.452;2023-12-04T15:13:56;8.00;40.50
2783;DHT22;1399;47.072;15.452;2023-12-04T15:16:34;8.00;40.60
2783;DHT22;1399;47.072;15.452;2023-12-04T15:19:05;8.00;40.70
2783;DHT22;1399;47.072;15.452;2023-12-04T15:21:31;8.00;40.70
2783;DHT22;1399;47.072;15.452;2023-12-04T15:23:57;8.00;40.70
2783;DHT22;1399;47.072;15.452;2023-12-04T15:29:44;8.00;40.80
2783;DHT22;1399;47.072;15.452;2023-12-04T15:32:09;8.00;40.90
2783;DHT22;1399;47.072;15.452;2023-12-04T15:34:35;7.90;40.90
2783;DHT22;1399;47.072;15.452;2023-12-04T15:37:01;7.90;40.90
2783;DHT22;1399;47.072;15.452;2023-12-04T15:39:27;7.90;40.90
2783;DHT22;1399;47.072;15.452;2023-12-04T15:41:53;7.90;41.00
2783;DHT22;1399;47.072;15.452;2023-12-04T15:44:19;7.90;41.00
2783;DHT22;1399;47.072;15.452;2023-12-04T15:46:45;7.90;41.00
2783;DHT22;1399;47.072;15.452;2023-12-04T15:49:11;7.90;41.00
2783;DHT22;1399;47.072;15.452;2023-12-04T15:51:36;7.90;41.10
2783;DHT22;1399;47.072;15.452;2023-12-04T15:54:03;7.90;41.10
2783;DHT22;1399;47.072;15.452;2023-12-04T15:56:29;7.90;41.20
2783;DHT22;1399;47.072;15.452;2023-12-04T15:58:55;7.90;41.20
2783;DHT22;1399;47.072;15.452;2023-12-04T16:01:20;7.90;41.20
2783;DHT22;1399;47.072;15.452;2023-12-04T16:03:46;7.80;41.20
2783;DHT22;1399;47.072;15.452;2023-12-04T16:06:12;7.80;41.20
2783;DHT22;1399;47.072;15.452;2023-12-04T16:08:37;7.80;41.20